sensor_id;sensor_type;location;lat;lon;timestamp;P1;durP1;ratioP1;P2;durP2;ratioP2
14282;SDS011;7225;59.282;18.344;2023-04-23T00:01:14;6.60;;;1.20;;
14282;SDS011;7225;59.282;18.344;2023-04-23T00:03:43;1.83;;;1.20;;
14282;SDS011;7225;59.282;18.344;2023-04-23T00:06:11;2.87;;;1.10;;
14282;SDS011;7225;59.282;18.344;2023-04-23T00:08:39;3.07;;;1.00;;
14282;SDS011;7225;59.282;18.344;2023-04-23T00:11:07;2.60;;;1.20;;
14282;SDS011;7225;59.282;18.344;2023-04-23T00:13:35;1.47;;;1.07;;
14282;SDS011;7225;59.282;18.344;2023-04-23T00:16:03;2.77;;;0.97;;
14282;SDS011;7225;59.282;18.344;2023-04-23T00:18:30;3.07;;;1.37;;
14282;SDS011;7225;59.282;18.344;2023-04-23T00:20:57;1.80;;;1.00;;
14282;SDS011;7225;59.282;18.344;2023-04-23T00:23:24;2.03;;;0.83;;
14282;SDS011;7225;59.282;18.344;2023-04-23T00:25:52;2.17;;;1.10;;
14282;SDS011;7225;59.282;18.344;2023-04-23T00:28:19;1.83;;;0.70;;
14282;SDS011;7225;59.282;18.344;2023-04-23T00:30:47;1.57;;;1.00;;
14282;SDS011;7225;59.282;18.344;2023-04-23T00:33:14;2.73;;;1.10;;
14282;SDS011;7225;59.282;18.344;2023-04-23T00:35:41;1.80;;;0.87;;
14282;SDS011;7225;59.282;18.344;2023-04-23T00:38:08;2.93;;;1.10;;
14282;SDS011;7225;59.282;18.344;2023-04-23T00:40:35;1.87;;;1.10;;
14282;SDS011;7225;59.282;18.344;2023-04-23T00:43:03;4.47;;;1.10;;
14282;SDS011;7225;59.282;18.344;2023-04-23T00:45:30;3.50;;;0.97;;
14282;SDS011;7225;59.282;18.344;2023-04-23T00:47:57;4.10;;;1.20;;
14282;SDS011;7225;59.282;18.344;2023-04-23T00:50:24;3.30;;;1.27;;
14282;SDS011;7225;59.282;18.344;2023-04-23T00:52:51;1.70;;;1.00;;
14282;SDS011;7225;59.282;18.344;2023-04-23T00:55:18;2.23;;;0.90;;
14282;SDS011;7225;59.282;18.344;2023-04-23T00:57:46;1.93;;;1.20;;
14282;SDS011;7225;59.282;18.344;2023-04-23T01:00:14;3.00;;;1.20;;
14282;SDS011;7225;59.282;18.344;2023-04-23T01:02:41;1.73;;;1.00;;
14282;SDS011;7225;59.282;18.344;2023-04-23T01:05:09;6.70;;;1.47;;
14282;SDS011;7225;59.282;18.344;2023-04-23T01:07:38;2.57;;;1.33;;
14282;SDS011;7225;59.282;18.344;2023-04-23T01:10:07;3.03;;;1.13;;
14282;SDS011;7225;59.282;18.344;2023-04-23T01:12:35;2.87;;;1.23;;
14282;SDS011;7225;59.282;18.344;2023-04-23T01:15:02;3.33;;;1.10;;
14282;SDS011;7225;59.282;18.344;2023-04-23T01:17:30;4.67;;;1.30;;
14282;SDS011;7225;59.282;18.344;2023-04-23T01:19:59;3.87;;;1.63;;
14282;SDS011;7225;59.282;18.344;2023-04-23T01:22:26;2.90;;;2.63;;
14282;SDS011;7225;59.282;18.344;2023-04-23T01:24:53;2.57;;;1.20;;
14282;SDS011;7225;59.282;18.344;2023-04-23T01:27:21;2.20;;;1.33;;
14282;SDS011;7225;59.282;18.344;2023-04-23T01:29:50;4.20;;;0.97;;
14282;SDS011;7225;59.282;18.344;2023-04-23T01:32:17;2.93;;;1.23;;
14282;SDS011;7225;59.282;18.344;2023-04-23T01:34:45;3.70;;;1.07;;
14282;SDS011;7225;59.282;18.344;2023-04-23T01:37:13;2.60;;;1.30;;
14282;SDS011;7225;59.282;18.344;2023-04-23T01:39:42;2.50;;;1.30;;
14282;SDS011;7225;59.282;18.344;2023-04-23T01:42:09;2.53;;;1.10;;
14282;SDS011;7225;59.282;18.344;2023-04-23T01:44:36;1.90;;;1.07;;
14282;SDS011;7225;59.282;18.344;2023-04-23T01:47:03;2.93;;;1.10;;
14282;SDS011;7225;59.282;18.344;2023-04-23T01:49:32;1.97;;;1.10;;
14282;SDS011;7225;59.282;18.344;2023-04-23T01:51:59;1.63;;;1.03;;
14282;SDS011;7225;59.282;18.344;2023-04-23T01:54:26;2.37;;;0.90;;
14282;SDS011;7225;59.282;18.344;2023-04-23T01:56:53;1.70;;;1.20;;
14282;SDS011;7225;59.282;18.344;2023-04-23T01:59:21;2.77;;;1.17;;
14282;SDS011;7225;59.282;18.344;2023-04-23T02:01:48;2.27;;;1.00;;
14282;SDS011;7225;59.282;18.344;2023-04-23T02:04:16;3.07;;;1.03;;
14282;SDS011;7225;59.282;18.344;2023-04-23T02:06:45;6.43;;;1.30;;
14282;SDS011;7225;59.282;18.344;2023-04-23T02:09:14;3.83;;;1.33;;
14282;SDS011;7225;59.282;18.344;2023-04-23T02:11:41;3.63;;;1.30;;
14282;SDS011;7225;59.282;18.344;2023-04-23T02:14:08;4.03;;;1.50;;
14282;SDS011;7225;59.282;18.344;2023-04-23T02:16:35;2.97;;;1.40;;
14282;SDS011;7225;59.282;18.344;2023-04-23T02:19:02;4.50;;;2.00;;
14282;SDS011;7225;59.282;18.344;2023-04-23T02:21:29;4.63;;;1.30;;
14282;SDS011;7225;59.282;18.344;2023-04-23T02:23:57;4.00;;;2.40;;
14282;SDS011;7225;59.282;18.344;2023-04-23T02:26:24;3.80;;;1.60;;
14282;SDS011;7225;59.282;18.344;2023-04-23T02:28:51;2.73;;;1.67;;
14282;SDS011;7225;59.282;18.344;2023-04-23T02:31:18;4.17;;;1.17;;
14282;SDS011;7225;59.282;18.344;2023-04-23T02:33:46;3.83;;;1.70;;
14282;SDS011;7225;59.282;18.344;2023-04-23T02:36:13;2.60;;;1.40;;
14282;SDS011;7225;59.282;18.344;2023-04-23T02:38:41;5.17;;;1.50;;
14282;SDS011;7225;59.282;18.344;2023-04-23T02:41:10;3.00;;;1.30;;
14282;SDS011;7225;59.282;18.344;2023-04-23T02:43:37;4.93;;;1.43;;
14282;SDS011;7225;59.282;18.344;2023-04-23T02:46:04;3.37;;;1.43;;
14282;SDS011;7225;59.282;18.344;2023-04-23T02:48:38;3.63;;;1.50;;
14282;SDS011;7225;59.282;18.344;2023-04-23T02:51:10;3.70;;;1.60;;
14282;SDS011;7225;59.282;18.344;2023-04-23T02:53:38;3.77;;;1.47;;
14282;SDS011;7225;59.282;18.344;2023-04-23T02:56:05;1.73;;;1.37;;
14282;SDS011;7225;59.282;18.344;2023-04-23T02:58:32;2.53;;;1.30;;
14282;SDS011;7225;59.282;18.344;2023-04-23T03:00:59;4.87;;;1.10;;
14282;SDS011;7225;59.282;18.344;2023-04-23T03:03:27;5.50;;;1.43;;
14282;SDS011;7225;59.282;18.344;2023-04-23T03:05:58;3.00;;;1.70;;
14282;SDS011;7225;59.282;18.344;2023-04-23T03:08:26;3.80;;;1.40;;
14282;SDS011;7225;59.282;18.344;2023-04-23T03:10:53;2.13;;;1.40;;
14282;SDS011;7225;59.282;18.344;2023-04-23T03:13:20;4.83;;;1.53;;
14282;SDS011;7225;59.282;18.344;2023-04-23T03:15:47;4.57;;;1.67;;
14282;SDS011;7225;59.282;18.344;2023-04-23T03:18:15;2.70;;;1.37;;
14282;SDS011;7225;59.282;18.344;2023-04-23T03:20:42;2.67;;;1.07;;
14282;SDS011;7225;59.282;18.344;2023-04-23T03:23:09;3.70;;;1.73;;
14282;SDS011;7225;59.282;18.344;2023-04-23T03:25:36;4.17;;;1.03;;
14282;SDS011;7225;59.282;18.344;2023-04-23T03:28:03;1.77;;;1.20;;
14282;SDS011;7225;59.282;18.344;2023-04-23T03:30:50;3.57;;;1.77;;
14282;SDS011;7225;59.282;18.344;2023-04-23T03:33:17;2.73;;;1.43;;
14282;SDS011;7225;59.282;18.344;2023-04-23T03:35:44;5.10;;;1.73;;
14282;SDS011;7225;59.282;18.344;2023-04-23T03:38:11;3.23;;;1.17;;
14282;SDS011;7225;59.282;18.344;2023-04-23T03:40:38;4.60;;;1.60;;
14282;SDS011;7225;59.282;18.344;2023-04-23T03:43:05;5.23;;;1.80;;
14282;SDS011;7225;59.282;18.344;2023-04-23T03:45:32;3.67;;;1.60;;
14282;SDS011;7225;59.282;18.344;2023-04-23T03:47:59;5.03;;;1.57;;
14282;SDS011;7225;59.282;18.344;2023-04-23T03:50:26;3.93;;;1.60;;
14282;SDS011;7225;59.282;18.344;2023-04-23T03:52:53;3.60;;;1.37;;
14282;SDS011;7225;59.282;18.344;2023-04-23T03:55:20;3.33;;;1.40;;
14282;SDS011;7225;59.282;18.344;2023-04-23T03:57:47;4.77;;;1.80;;
14282;SDS011;7225;59.282;18.344;2023-04-23T04:00:14;2.83;;;1.60;;
14282;SDS011;7225;59.282;18.344;2023-04-23T04:02:41;1.93;;;1.17;;
14282;SDS011;7225;59.282;18.344;2023-04-23T04:05:08;2.27;;;1.13;;
14282;SDS011;7225;59.282;18.344;2023-04-23T04:07:39;2.93;;;1.47;;
14282;SDS011;7225;59.282;18.344;2023-04-23T04:10:06;3.53;;;1.53;;
14282;SDS011;7225;59.282;18.344;2023-04-23T04:12:33;4.77;;;1.60;;
14282;SDS011;7225;59.282;18.344;2023-04-23T04:15:02;3.93;;;1.30;;
14282;SDS011;7225;59.282;18.344;2023-04-23T04:17:29;3.73;;;1.70;;
14282;SDS011;7225;59.282;18.344;2023-04-23T04:19:57;3.87;;;1.50;;
14282;SDS011;7225;59.282;18.344;2023-04-23T04:22:24;3.83;;;1.47;;
14282;SDS011;7225;59.282;18.344;2023-04-23T04:24:51;5.90;;;1.30;;
14282;SDS011;7225;59.282;18.344;2023-04-23T04:27:18;4.00;;;1.63;;
14282;SDS011;7225;59.282;18.344;2023-04-23T04:29:46;2.90;;;1.40;;
14282;SDS011;7225;59.282;18.344;2023-04-23T04:32:13;3.13;;;1.67;;
14282;SDS011;7225;59.282;18.344;2023-04-23T04:34:40;4.73;;;1.83;;
14282;SDS011;7225;59.282;18.344;2023-04-23T04:37:08;4.03;;;1.57;;
14282;SDS011;7225;59.282;18.344;2023-04-23T04:39:36;2.67;;;1.60;;
14282;SDS011;7225;59.282;18.344;2023-04-23T04:42:03;3.93;;;1.73;;
14282;SDS011;7225;59.282;18.344;2023-04-23T04:44:32;3.97;;;1.70;;
14282;SDS011;7225;59.282;18.344;2023-04-23T04:47:03;3.67;;;1.43;;
14282;SDS011;7225;59.282;18.344;2023-04-23T04:49:30;7.57;;;1.67;;
14282;SDS011;7225;59.282;18.344;2023-04-23T04:51:57;3.13;;;1.90;;
14282;SDS011;7225;59.282;18.344;2023-04-23T04:54:24;3.17;;;1.83;;
14282;SDS011;7225;59.282;18.344;2023-04-23T04:56:51;3.93;;;1.80;;
14282;SDS011;7225;59.282;18.344;2023-04-23T04:59:18;3.50;;;1.47;;
14282;SDS011;7225;59.282;18.344;2023-04-23T05:01:45;4.33;;;2.00;;
14282;SDS011;7225;59.282;18.344;2023-04-23T05:04:13;2.63;;;1.43;;
14282;SDS011;7225;59.282;18.344;2023-04-23T05:06:40;2.27;;;1.73;;
14282;SDS011;7225;59.282;18.344;2023-04-23T05:09:07;2.23;;;1.50;;
14282;SDS011;7225;59.282;18.344;2023-04-23T05:11:34;3.13;;;1.70;;
14282;SDS011;7225;59.282;18.344;2023-04-23T05:14:01;2.50;;;1.43;;
14282;SDS011;7225;59.282;18.344;2023-04-23T05:16:29;5.80;;;1.77;;
14282;SDS011;7225;59.282;18.344;2023-04-23T05:18:56;3.80;;;1.80;;
14282;SDS011;7225;59.282;18.344;2023-04-23T05:21:23;2.57;;;1.40;;
14282;SDS011;7225;59.282;18.344;2023-04-23T05:23:53;3.80;;;1.90;;
14282;SDS011;7225;59.282;18.344;2023-04-23T05:26:20;3.53;;;1.67;;
14282;SDS011;7225;59.282;18.344;2023-04-23T05:28:47;2.50;;;1.40;;
14282;SDS011;7225;59.282;18.344;2023-04-23T05:31:14;3.17;;;1.50;;
14282;SDS011;7225;59.282;18.344;2023-04-23T05:33:41;2.93;;;1.73;;
14282;SDS011;7225;59.282;18.344;2023-04-23T05:36:15;1.73;;;1.33;;
14282;SDS011;7225;59.282;18.344;2023-04-23T05:38:43;2.20;;;1.40;;
14282;SDS011;7225;59.282;18.344;2023-04-23T05:41:10;1.67;;;1.30;;
14282;SDS011;7225;59.282;18.344;2023-04-23T05:43:37;4.67;;;1.50;;
14282;SDS011;7225;59.282;18.344;2023-04-23T05:46:04;3.17;;;1.50;;
14282;SDS011;7225;59.282;18.344;2023-04-23T05:48:33;2.87;;;1.30;;
14282;SDS011;7225;59.282;18.344;2023-04-23T05:51:00;4.43;;;2.00;;
14282;SDS011;7225;59.282;18.344;2023-04-23T05:53:27;2.50;;;1.50;;
14282;SDS011;7225;59.282;18.344;2023-04-23T05:55:54;4.43;;;1.80;;
14282;SDS011;7225;59.282;18.344;2023-04-23T05:58:21;3.00;;;1.70;;
14282;SDS011;7225;59.282;18.344;2023-04-23T06:00:48;2.97;;;1.80;;
14282;SDS011;7225;59.282;18.344;2023-04-23T06:03:15;4.13;;;1.23;;
14282;SDS011;7225;59.282;18.344;2023-04-23T06:05:43;1.90;;;1.40;;
14282;SDS011;7225;59.282;18.344;2023-04-23T06:08:10;6.97;;;1.50;;
14282;SDS011;7225;59.282;18.344;2023-04-23T06:10:37;2.60;;;1.33;;
14282;SDS011;7225;59.282;18.344;2023-04-23T06:13:03;3.30;;;1.70;;
14282;SDS011;7225;59.282;18.344;2023-04-23T06:15:31;1.87;;;1.53;;
14282;SDS011;7225;59.282;18.344;2023-04-23T06:17:58;3.43;;;1.37;;
14282;SDS011;7225;59.282;18.344;2023-04-23T06:20:25;3.97;;;1.50;;
14282;SDS011;7225;59.282;18.344;2023-04-23T06:22:52;4.03;;;2.10;;
14282;SDS011;7225;59.282;18.344;2023-04-23T06:25:19;6.53;;;1.50;;
14282;SDS011;7225;59.282;18.344;2023-04-23T06:27:46;3.13;;;1.43;;
14282;SDS011;7225;59.282;18.344;2023-04-23T06:30:13;2.20;;;1.33;;
14282;SDS011;7225;59.282;18.344;2023-04-23T06:32:40;3.10;;;1.50;;
14282;SDS011;7225;59.282;18.344;2023-04-23T06:35:07;6.20;;;1.40;;
14282;SDS011;7225;59.282;18.344;2023-04-23T06:37:34;2.23;;;1.20;;
14282;SDS011;7225;59.282;18.344;2023-04-23T06:40:01;11.07;;;1.43;;
14282;SDS011;7225;59.282;18.344;2023-04-23T06:42:28;4.00;;;1.10;;
14282;SDS011;7225;59.282;18.344;2023-04-23T06:44:56;1.70;;;1.07;;
14282;SDS011;7225;59.282;18.344;2023-04-23T06:47:24;2.30;;;1.20;;
14282;SDS011;7225;59.282;18.344;2023-04-23T06:49:52;1.90;;;1.20;;
14282;SDS011;7225;59.282;18.344;2023-04-23T06:52:19;4.07;;;1.20;;
14282;SDS011;7225;59.282;18.344;2023-04-23T06:54:46;2.07;;;1.20;;
14282;SDS011;7225;59.282;18.344;2023-04-23T06:57:13;1.57;;;1.00;;
14282;SDS011;7225;59.282;18.344;2023-04-23T06:59:41;2.03;;;1.20;;
14282;SDS011;7225;59.282;18.344;2023-04-23T07:02:08;1.90;;;0.90;;
14282;SDS011;7225;59.282;18.344;2023-04-23T07:04:35;1.57;;;1.13;;
14282;SDS011;7225;59.282;18.344;2023-04-23T07:07:02;2.87;;;1.57;;
14282;SDS011;7225;59.282;18.344;2023-04-23T07:09:29;2.27;;;1.33;;
14282;SDS011;7225;59.282;18.344;2023-04-23T07:11:56;2.40;;;1.57;;
14282;SDS011;7225;59.282;18.344;2023-04-23T07:14:23;2.60;;;1.40;;
14282;SDS011;7225;59.282;18.344;2023-04-23T07:16:50;2.07;;;1.47;;
14282;SDS011;7225;59.282;18.344;2023-04-23T07:19:18;3.83;;;1.40;;
14282;SDS011;7225;59.282;18.344;2023-04-23T07:21:45;2.07;;;1.00;;
14282;SDS011;7225;59.282;18.344;2023-04-23T07:24:12;6.87;;;1.30;;
14282;SDS011;7225;59.282;18.344;2023-04-23T07:26:38;1.97;;;1.03;;
14282;SDS011;7225;59.282;18.344;2023-04-23T07:29:06;3.87;;;1.13;;
14282;SDS011;7225;59.282;18.344;2023-04-23T07:31:36;2.47;;;1.70;;
14282;SDS011;7225;59.282;18.344;2023-04-23T07:34:04;1.53;;;1.40;;
14282;SDS011;7225;59.282;18.344;2023-04-23T07:36:31;2.77;;;1.03;;
14282;SDS011;7225;59.282;18.344;2023-04-23T07:38:58;3.03;;;1.10;;
14282;SDS011;7225;59.282;18.344;2023-04-23T07:41:25;2.33;;;1.00;;
14282;SDS011;7225;59.282;18.344;2023-04-23T07:43:52;1.43;;;1.13;;
14282;SDS011;7225;59.282;18.344;2023-04-23T07:46:20;3.07;;;0.97;;
14282;SDS011;7225;59.282;18.344;2023-04-23T07:48:47;3.83;;;1.73;;
14282;SDS011;7225;59.282;18.344;2023-04-23T07:51:14;1.50;;;0.80;;
14282;SDS011;7225;59.282;18.344;2023-04-23T07:53:41;1.67;;;0.80;;
14282;SDS011;7225;59.282;18.344;2023-04-23T07:56:08;6.30;;;1.30;;
14282;SDS011;7225;59.282;18.344;2023-04-23T07:58:35;1.47;;;0.70;;
14282;SDS011;7225;59.282;18.344;2023-04-23T08:01:02;5.17;;;1.70;;
14282;SDS011;7225;59.282;18.344;2023-04-23T08:03:29;2.30;;;1.23;;
14282;SDS011;7225;59.282;18.344;2023-04-23T08:05:57;2.13;;;1.10;;
14282;SDS011;7225;59.282;18.344;2023-04-23T08:08:23;2.63;;;1.47;;
14282;SDS011;7225;59.282;18.344;2023-04-23T08:10:50;3.00;;;1.47;;
14282;SDS011;7225;59.282;18.344;2023-04-23T08:13:17;2.93;;;1.33;;
14282;SDS011;7225;59.282;18.344;2023-04-23T08:15:45;3.30;;;1.00;;
14282;SDS011;7225;59.282;18.344;2023-04-23T08:18:12;2.40;;;1.00;;
14282;SDS011;7225;59.282;18.344;2023-04-23T08:20:39;3.87;;;1.13;;
14282;SDS011;7225;59.282;18.344;2023-04-23T08:23:06;1.83;;;1.00;;
14282;SDS011;7225;59.282;18.344;2023-04-23T08:25:33;1.40;;;0.80;;
14282;SDS011;7225;59.282;18.344;2023-04-23T08:28:00;4.30;;;0.90;;
14282;SDS011;7225;59.282;18.344;2023-04-23T08:30:27;7.00;;;1.43;;
14282;SDS011;7225;59.282;18.344;2023-04-23T08:32:54;2.07;;;1.30;;
14282;SDS011;7225;59.282;18.344;2023-04-23T08:35:22;4.47;;;2.00;;
14282;SDS011;7225;59.282;18.344;2023-04-23T08:37:49;4.10;;;2.30;;
14282;SDS011;7225;59.282;18.344;2023-04-23T08:40:16;3.00;;;1.53;;
14282;SDS011;7225;59.282;18.344;2023-04-23T08:42:52;2.80;;;1.00;;
14282;SDS011;7225;59.282;18.344;2023-04-23T08:45:23;1.93;;;1.00;;
14282;SDS011;7225;59.282;18.344;2023-04-23T08:47:52;3.53;;;1.47;;
14282;SDS011;7225;59.282;18.344;2023-04-23T08:50:27;8.20;;;1.00;;
14282;SDS011;7225;59.282;18.344;2023-04-23T08:52:55;3.53;;;0.73;;
14282;SDS011;7225;59.282;18.344;2023-04-23T08:55:23;3.60;;;1.00;;
14282;SDS011;7225;59.282;18.344;2023-04-23T08:57:51;4.27;;;1.00;;
14282;SDS011;7225;59.282;18.344;2023-04-23T09:00:18;1.43;;;0.60;;
14282;SDS011;7225;59.282;18.344;2023-04-23T09:02:48;2.30;;;1.00;;
14282;SDS011;7225;59.282;18.344;2023-04-23T09:05:16;3.13;;;0.67;;
14282;SDS011;7225;59.282;18.344;2023-04-23T09:07:43;2.23;;;1.00;;
14282;SDS011;7225;59.282;18.344;2023-04-23T09:10:11;2.10;;;0.80;;
14282;SDS011;7225;59.282;18.344;2023-04-23T09:12:43;2.27;;;0.70;;
14282;SDS011;7225;59.282;18.344;2023-04-23T09:15:12;4.37;;;1.00;;
14282;SDS011;7225;59.282;18.344;2023-04-23T09:17:40;7.00;;;1.27;;
14282;SDS011;7225;59.282;18.344;2023-04-23T09:20:09;6.90;;;1.10;;
14282;SDS011;7225;59.282;18.344;2023-04-23T09:22:39;4.07;;;1.13;;
14282;SDS011;7225;59.282;18.344;2023-04-23T09:25:20;2.07;;;0.90;;
14282;SDS011;7225;59.282;18.344;2023-04-23T09:27:49;3.90;;;0.80;;
14282;SDS011;7225;59.282;18.344;2023-04-23T09:30:17;3.23;;;1.10;;
14282;SDS011;7225;59.282;18.344;2023-04-23T09:32:45;5.87;;;1.50;;
14282;SDS011;7225;59.282;18.344;2023-04-23T09:35:13;2.60;;;0.80;;
14282;SDS011;7225;59.282;18.344;2023-04-23T09:37:43;2.50;;;0.80;;
14282;SDS011;7225;59.282;18.344;2023-04-23T09:40:15;2.57;;;1.00;;
14282;SDS011;7225;59.282;18.344;2023-04-23T09:42:50;2.33;;;0.97;;
14282;SDS011;7225;59.282;18.344;2023-04-23T09:45:21;3.10;;;1.63;;
14282;SDS011;7225;59.282;18.344;2023-04-23T09:47:54;5.87;;;3.10;;
14282;SDS011;7225;59.282;18.344;2023-04-23T09:50:33;2.27;;;1.50;;
14282;SDS011;7225;59.282;18.344;2023-04-23T09:53:02;1.83;;;1.00;;
14282;SDS011;7225;59.282;18.344;2023-04-23T09:55:31;6.13;;;1.47;;
14282;SDS011;7225;59.282;18.344;2023-04-23T09:58:02;1.90;;;0.80;;
14282;SDS011;7225;59.282;18.344;2023-04-23T10:00:34;5.17;;;4.00;;
14282;SDS011;7225;59.282;18.344;2023-04-23T10:03:02;1.97;;;1.67;;
14282;SDS011;7225;59.282;18.344;2023-04-23T10:05:32;2.07;;;1.17;;
14282;SDS011;7225;59.282;18.344;2023-04-23T10:08:06;2.10;;;1.33;;
14282;SDS011;7225;59.282;18.344;2023-04-23T10:10:36;3.70;;;1.90;;
14282;SDS011;7225;59.282;18.344;2023-04-23T10:13:22;1.60;;;1.10;;
14282;SDS011;7225;59.282;18.344;2023-04-23T10:15:49;1.47;;;1.13;;
14282;SDS011;7225;59.282;18.344;2023-04-23T10:18:17;1.63;;;1.00;;
14282;SDS011;7225;59.282;18.344;2023-04-23T10:20:46;3.30;;;0.80;;
14282;SDS011;7225;59.282;18.344;2023-04-23T10:23:15;2.07;;;0.57;;
14282;SDS011;7225;59.282;18.344;2023-04-23T10:25:44;1.17;;;0.80;;
14282;SDS011;7225;59.282;18.344;2023-04-23T10:28:14;2.37;;;1.00;;
14282;SDS011;7225;59.282;18.344;2023-04-23T10:30:47;4.27;;;2.10;;
14282;SDS011;7225;59.282;18.344;2023-04-23T10:33:15;2.40;;;2.10;;
14282;SDS011;7225;59.282;18.344;2023-04-23T10:35:56;1.87;;;1.00;;
14282;SDS011;7225;59.282;18.344;2023-04-23T10:38:23;1.47;;;0.60;;
14282;SDS011;7225;59.282;18.344;2023-04-23T10:40:54;2.90;;;0.80;;
14282;SDS011;7225;59.282;18.344;2023-04-23T10:43:21;1.03;;;0.80;;
14282;SDS011;7225;59.282;18.344;2023-04-23T10:45:49;1.27;;;0.80;;
14282;SDS011;7225;59.282;18.344;2023-04-23T10:48:16;2.20;;;1.07;;
14282;SDS011;7225;59.282;18.344;2023-04-23T10:50:43;2.33;;;1.00;;
14282;SDS011;7225;59.282;18.344;2023-04-23T10:53:30;2.53;;;0.90;;
14282;SDS011;7225;59.282;18.344;2023-04-23T10:56:04;4.33;;;1.00;;
14282;SDS011;7225;59.282;18.344;2023-04-23T10:58:46;1.60;;;1.10;;
14282;SDS011;7225;59.282;18.344;2023-04-23T11:01:16;3.33;;;0.90;;
14282;SDS011;7225;59.282;18.344;2023-04-23T11:03:44;1.83;;;0.83;;
14282;SDS011;7225;59.282;18.344;2023-04-23T11:09:35;2.90;;;1.03;;
14282;SDS011;7225;59.282;18.344;2023-04-23T11:12:04;3.20;;;0.77;;
14282;SDS011;7225;59.282;18.344;2023-04-23T11:14:40;3.23;;;0.87;;
14282;SDS011;7225;59.282;18.344;2023-04-23T11:17:09;2.93;;;1.10;;
14282;SDS011;7225;59.282;18.344;2023-04-23T11:19:39;1.97;;;0.80;;
14282;SDS011;7225;59.282;18.344;2023-04-23T11:22:16;2.40;;;1.00;;
14282;SDS011;7225;59.282;18.344;2023-04-23T11:24:45;1.63;;;0.80;;
14282;SDS011;7225;59.282;18.344;2023-04-23T11:27:16;1.67;;;0.93;;
14282;SDS011;7225;59.282;18.344;2023-04-23T11:29:44;6.00;;;0.90;;
14282;SDS011;7225;59.282;18.344;2023-04-23T11:32:14;2.03;;;1.10;;
14282;SDS011;7225;59.282;18.344;2023-04-23T11:34:42;3.30;;;0.90;;
14282;SDS011;7225;59.282;18.344;2023-04-23T11:37:14;2.10;;;1.10;;
14282;SDS011;7225;59.282;18.344;2023-04-23T11:39:43;2.17;;;1.10;;
14282;SDS011;7225;59.282;18.344;2023-04-23T11:42:13;2.00;;;0.73;;
14282;SDS011;7225;59.282;18.344;2023-04-23T11:44:41;3.63;;;1.20;;
14282;SDS011;7225;59.282;18.344;2023-04-23T11:47:12;2.00;;;0.77;;
14282;SDS011;7225;59.282;18.344;2023-04-23T11:49:42;3.23;;;1.17;;
14282;SDS011;7225;59.282;18.344;2023-04-23T11:52:11;3.90;;;1.20;;
14282;SDS011;7225;59.282;18.344;2023-04-23T11:54:41;2.83;;;0.90;;
14282;SDS011;7225;59.282;18.344;2023-04-23T11:57:08;2.87;;;0.90;;
14282;SDS011;7225;59.282;18.344;2023-04-23T11:59:35;2.90;;;1.00;;
14282;SDS011;7225;59.282;18.344;2023-04-23T12:02:03;1.93;;;0.93;;
14282;SDS011;7225;59.282;18.344;2023-04-23T12:04:30;3.73;;;1.03;;
14282;SDS011;7225;59.282;18.344;2023-04-23T12:06:58;1.97;;;1.20;;
14282;SDS011;7225;59.282;18.344;2023-04-23T12:09:26;2.93;;;1.10;;
14282;SDS011;7225;59.282;18.344;2023-04-23T12:11:55;1.50;;;0.93;;
14282;SDS011;7225;59.282;18.344;2023-04-23T12:14:24;1.90;;;0.97;;
14282;SDS011;7225;59.282;18.344;2023-04-23T12:16:54;5.80;;;1.30;;
14282;SDS011;7225;59.282;18.344;2023-04-23T12:19:28;2.80;;;1.20;;
14282;SDS011;7225;59.282;18.344;2023-04-23T12:22:00;3.97;;;1.37;;
14282;SDS011;7225;59.282;18.344;2023-04-23T12:24:29;2.50;;;0.97;;
14282;SDS011;7225;59.282;18.344;2023-04-23T12:26:58;2.40;;;0.90;;
14282;SDS011;7225;59.282;18.344;2023-04-23T12:29:28;5.60;;;1.27;;
14282;SDS011;7225;59.282;18.344;2023-04-23T12:31:57;2.40;;;1.20;;
14282;SDS011;7225;59.282;18.344;2023-04-23T12:34:25;1.50;;;1.00;;
14282;SDS011;7225;59.282;18.344;2023-04-23T12:36:54;2.20;;;0.97;;
14282;SDS011;7225;59.282;18.344;2023-04-23T12:39:32;3.63;;;1.50;;
14282;SDS011;7225;59.282;18.344;2023-04-23T12:42:01;2.63;;;1.27;;
14282;SDS011;7225;59.282;18.344;2023-04-23T12:44:32;4.20;;;1.27;;
14282;SDS011;7225;59.282;18.344;2023-04-23T12:47:01;2.17;;;1.00;;
14282;SDS011;7225;59.282;18.344;2023-04-23T12:49:29;1.67;;;1.10;;
14282;SDS011;7225;59.282;18.344;2023-04-23T12:51:57;4.33;;;1.40;;
14282;SDS011;7225;59.282;18.344;2023-04-23T12:54:29;2.60;;;1.17;;
14282;SDS011;7225;59.282;18.344;2023-04-23T12:56:57;2.70;;;1.07;;
14282;SDS011;7225;59.282;18.344;2023-04-23T12:59:27;2.43;;;1.00;;
14282;SDS011;7225;59.282;18.344;2023-04-23T13:01:54;3.77;;;1.40;;
14282;SDS011;7225;59.282;18.344;2023-04-23T13:04:22;3.30;;;1.27;;
14282;SDS011;7225;59.282;18.344;2023-04-23T13:06:49;2.50;;;1.20;;
14282;SDS011;7225;59.282;18.344;2023-04-23T13:09:16;2.77;;;1.27;;
14282;SDS011;7225;59.282;18.344;2023-04-23T13:11:43;4.33;;;1.47;;
14282;SDS011;7225;59.282;18.344;2023-04-23T13:14:14;2.57;;;1.20;;
14282;SDS011;7225;59.282;18.344;2023-04-23T13:16:41;3.10;;;1.30;;
14282;SDS011;7225;59.282;18.344;2023-04-23T13:19:09;1.30;;;1.20;;
14282;SDS011;7225;59.282;18.344;2023-04-23T13:21:36;3.70;;;1.10;;
14282;SDS011;7225;59.282;18.344;2023-04-23T13:24:03;3.83;;;1.47;;
14282;SDS011;7225;59.282;18.344;2023-04-23T13:26:30;5.27;;;1.60;;
14282;SDS011;7225;59.282;18.344;2023-04-23T13:28:58;3.83;;;1.30;;
14282;SDS011;7225;59.282;18.344;2023-04-23T13:31:26;2.23;;;1.30;;
14282;SDS011;7225;59.282;18.344;2023-04-23T13:33:54;3.67;;;1.50;;
14282;SDS011;7225;59.282;18.344;2023-04-23T13:36:21;4.03;;;1.60;;
14282;SDS011;7225;59.282;18.344;2023-04-23T13:38:49;3.67;;;1.40;;
14282;SDS011;7225;59.282;18.344;2023-04-23T13:41:16;2.97;;;1.73;;
14282;SDS011;7225;59.282;18.344;2023-04-23T13:43:43;4.70;;;1.80;;
14282;SDS011;7225;59.282;18.344;2023-04-23T13:46:10;4.57;;;1.63;;
14282;SDS011;7225;59.282;18.344;2023-04-23T13:48:38;8.40;;;1.90;;
14282;SDS011;7225;59.282;18.344;2023-04-23T13:51:05;3.80;;;1.63;;
14282;SDS011;7225;59.282;18.344;2023-04-23T13:53:52;4.80;;;1.83;;
14282;SDS011;7225;59.282;18.344;2023-04-23T13:56:19;5.00;;;1.60;;
14282;SDS011;7225;59.282;18.344;2023-04-23T13:58:46;5.17;;;1.90;;
14282;SDS011;7225;59.282;18.344;2023-04-23T14:01:14;5.37;;;1.97;;
14282;SDS011;7225;59.282;18.344;2023-04-23T14:03:41;5.93;;;1.90;;
14282;SDS011;7225;59.282;18.344;2023-04-23T14:06:08;4.90;;;1.80;;
14282;SDS011;7225;59.282;18.344;2023-04-23T14:08:35;4.53;;;2.10;;
14282;SDS011;7225;59.282;18.344;2023-04-23T14:11:03;4.07;;;2.07;;
14282;SDS011;7225;59.282;18.344;2023-04-23T14:13:30;2.80;;;1.77;;
14282;SDS011;7225;59.282;18.344;2023-04-23T14:15:58;6.80;;;2.37;;
14282;SDS011;7225;59.282;18.344;2023-04-23T14:18:28;5.57;;;2.23;;
14282;SDS011;7225;59.282;18.344;2023-04-23T14:20:55;7.53;;;2.50;;
14282;SDS011;7225;59.282;18.344;2023-04-23T14:25:56;7.03;;;2.60;;
14282;SDS011;7225;59.282;18.344;2023-04-23T14:28:32;3.67;;;2.43;;
14282;SDS011;7225;59.282;18.344;2023-04-23T14:31:06;5.37;;;2.50;;
14282;SDS011;7225;59.282;18.344;2023-04-23T14:33:33;5.47;;;2.57;;
14282;SDS011;7225;59.282;18.344;2023-04-23T14:36:00;7.80;;;3.47;;
14282;SDS011;7225;59.282;18.344;2023-04-23T14:38:27;5.00;;;2.20;;
14282;SDS011;7225;59.282;18.344;2023-04-23T14:40:54;5.20;;;2.70;;
14282;SDS011;7225;59.282;18.344;2023-04-23T14:43:21;6.73;;;3.17;;
14282;SDS011;7225;59.282;18.344;2023-04-23T14:45:48;7.23;;;6.00;;
14282;SDS011;7225;59.282;18.344;2023-04-23T14:48:16;7.73;;;4.90;;
14282;SDS011;7225;59.282;18.344;2023-04-23T14:50:43;17.23;;;9.20;;
14282;SDS011;7225;59.282;18.344;2023-04-23T14:53:10;16.00;;;10.13;;
14282;SDS011;7225;59.282;18.344;2023-04-23T14:55:37;9.43;;;5.50;;
14282;SDS011;7225;59.282;18.344;2023-04-23T14:58:08;6.93;;;3.23;;
14282;SDS011;7225;59.282;18.344;2023-04-23T15:00:35;6.57;;;4.77;;